FFT2416 KMCO-KPHL
Flight info
| Callsign | FFT2416 |
|---|---|
| Flight time | 2h 4m |
| Altitude | 35000 |
| Route | FATHE4 VIYAP Q87 JROSS Q135 RREGG Q117 SAWED Q97 ZJAAY JIIMS4 |
| Aircraft | A321/M-SDE3FGHIRWY/LB1 |
Departure
| Time | 2026-05-05 14:08 |
|---|---|
| Airport | Orlando International Airport (KMCO) |
Arrival
| Time | 2026-05-05 16:13 |
|---|---|
| Airport | Philadelphia International Airport (KPHL) |
| Time | Latitude | Longitude | Altitude | Speed | Heading |
|---|---|---|---|---|---|
| 2026-05-05 13:58 | 28.43586 | -81.31567 | 94 ft | 0 kts | 114° |
| 2026-05-05 13:59 | 28.43594 | -81.31587 | 94 ft | 4 kts | 114° |
| 2026-05-05 14:00 | 28.43616 | -81.31633 | 97 ft | 4 kts | 159° |
| 2026-05-05 14:00 | 28.43638 | -81.31633 | 97 ft | 4 kts | 191° |
| 2026-05-05 14:00 | 28.43651 | -81.31630 | 97 ft | 1 kts | 191° |
| 2026-05-05 14:02 | 28.43646 | -81.31631 | 97 ft | 5 kts | 191° |
| 2026-05-05 14:03 | 28.43537 | -81.31656 | 99 ft | 24 kts | 191° |
| 2026-05-05 14:03 | 28.43370 | -81.31693 | 96 ft | 23 kts | 191° |
| 2026-05-05 14:03 | 28.43250 | -81.31784 | 100 ft | 20 kts | 235° |
| 2026-05-05 14:03 | 28.43174 | -81.31914 | 99 ft | 19 kts | 236° |
| 2026-05-05 14:04 | 28.43083 | -81.31998 | 99 ft | 16 kts | 182° |
| 2026-05-05 14:04 | 28.42974 | -81.31994 | 99 ft | 15 kts | 179° |
| 2026-05-05 14:04 | 28.42872 | -81.31993 | 99 ft | 14 kts | 179° |
| 2026-05-05 14:04 | 28.42782 | -81.31992 | 101 ft | 14 kts | 179° |
| 2026-05-05 14:05 | 28.42665 | -81.31992 | 103 ft | 20 kts | 180° |
| 2026-05-05 14:05 | 28.42498 | -81.31991 | 104 ft | 28 kts | 177° |
| 2026-05-05 14:05 | 28.42304 | -81.31987 | 102 ft | 28 kts | 179° |
| 2026-05-05 14:05 | 28.42108 | -81.31985 | 100 ft | 28 kts | 179° |
| 2026-05-05 14:06 | 28.41914 | -81.31984 | 100 ft | 27 kts | 180° |
| 2026-05-05 14:06 | 28.41729 | -81.31980 | 99 ft | 26 kts | 179° |
| 2026-05-05 14:06 | 28.41608 | -81.31980 | 100 ft | 14 kts | 181° |
| 2026-05-05 14:06 | 28.41545 | -81.32039 | 98 ft | 12 kts | 258° |
| 2026-05-05 14:07 | 28.41539 | -81.32125 | 97 ft | 10 kts | 271° |
| 2026-05-05 14:07 | 28.41560 | -81.32185 | 98 ft | 7 kts | 322° |
| 2026-05-05 14:07 | 28.41603 | -81.32197 | 97 ft | 6 kts | 354° |
| 2026-05-05 14:07 | 28.41662 | -81.32198 | 97 ft | 24 kts | 359° |
| 2026-05-05 14:08 | 28.42079 | -81.32202 | 100 ft | 93 kts | 359° |
| 2026-05-05 14:08 | 28.42914 | -81.32211 | 100 ft | 145 kts | 359° |
| 2026-05-05 14:08 | 28.44066 | -81.32227 | 149 ft | 180 kts | 1° |
| 2026-05-05 14:08 | 28.45263 | -81.32248 | 881 ft | 167 kts | 1° |
| 2026-05-05 14:09 | 28.46410 | -81.32279 | 1516 ft | 165 kts | 3° |
| 2026-05-05 14:09 | 28.47577 | -81.32286 | 1977 ft | 173 kts | 4° |
| 2026-05-05 14:09 | 28.48850 | -81.32283 | 2161 ft | 192 kts | 4° |
| 2026-05-05 14:09 | 28.50247 | -81.32280 | 2295 ft | 210 kts | 3° |
| 2026-05-05 14:10 | 28.51781 | -81.32280 | 2423 ft | 232 kts | 3° |
| 2026-05-05 14:10 | 28.53426 | -81.32295 | 2907 ft | 238 kts | 2° |
| 2026-05-05 14:10 | 28.55085 | -81.32298 | 3508 ft | 241 kts | 4° |
| 2026-05-05 14:10 | 28.56826 | -81.32193 | 3901 ft | 258 kts | 5° |
| 2026-05-05 14:11 | 28.58626 | -81.32039 | 4509 ft | 267 kts | 5° |
| 2026-05-05 14:11 | 28.60516 | -81.31856 | 5181 ft | 273 kts | 3° |
| 2026-05-05 14:11 | 28.62425 | -81.31670 | 5858 ft | 277 kts | 3° |
| 2026-05-05 14:11 | 28.64353 | -81.31451 | 6570 ft | 280 kts | 4° |
| 2026-05-05 14:12 | 28.66305 | -81.31192 | 7234 ft | 284 kts | 4° |
| 2026-05-05 14:12 | 28.68276 | -81.30922 | 7960 ft | 286 kts | 5° |
| 2026-05-05 14:12 | 28.70258 | -81.30650 | 8665 ft | 288 kts | 4° |
| 2026-05-05 14:12 | 28.72260 | -81.30378 | 9336 ft | 291 kts | 5° |
| 2026-05-05 14:13 | 28.74256 | -81.30111 | 9990 ft | 294 kts | 4° |
| 2026-05-05 14:13 | 28.76333 | -81.29839 | 10321 ft | 310 kts | 4° |
| 2026-05-05 14:13 | 28.78552 | -81.29555 | 10448 ft | 332 kts | 4° |
| 2026-05-05 14:13 | 28.80914 | -81.29253 | 10567 ft | 352 kts | 4° |
| 2026-05-05 14:14 | 28.83412 | -81.28949 | 10729 ft | 369 kts | 1° |
| 2026-05-05 14:14 | 28.85990 | -81.29008 | 11173 ft | 373 kts | 353° |
| 2026-05-05 14:14 | 28.88588 | -81.29235 | 11743 ft | 376 kts | 353° |
| 2026-05-05 14:14 | 28.91214 | -81.29462 | 12326 ft | 379 kts | 353° |
| 2026-05-05 14:15 | 28.93854 | -81.29687 | 12903 ft | 382 kts | 352° |
| 2026-05-05 14:15 | 28.96512 | -81.29912 | 13482 ft | 385 kts | 352° |
| 2026-05-05 14:15 | 28.99152 | -81.30135 | 14027 ft | 387 kts | 352° |
| 2026-05-05 14:15 | 29.01881 | -81.30393 | 14521 ft | 389 kts | 351° |
| 2026-05-05 14:16 | 29.04551 | -81.30682 | 15010 ft | 391 kts | 351° |
| 2026-05-05 14:16 | 29.07263 | -81.30997 | 15498 ft | 393 kts | 350° |
| 2026-05-05 14:16 | 29.09987 | -81.31317 | 15986 ft | 395 kts | 350° |
| 2026-05-05 14:16 | 29.12730 | -81.31604 | 16461 ft | 397 kts | 352° |
| 2026-05-05 14:17 | 29.15497 | -81.31809 | 16937 ft | 400 kts | 353° |
| 2026-05-05 14:17 | 29.18287 | -81.31959 | 17418 ft | 402 kts | 353° |
| 2026-05-05 14:17 | 29.21094 | -81.32089 | 17895 ft | 404 kts | 353° |
| 2026-05-05 14:17 | 29.23910 | -81.32220 | 18368 ft | 406 kts | 353° |
| 2026-05-05 14:18 | 29.26740 | -81.32361 | 18780 ft | 408 kts | 353° |
| 2026-05-05 14:18 | 29.29577 | -81.32516 | 19208 ft | 409 kts | 353° |
| 2026-05-05 14:18 | 29.32382 | -81.32681 | 19613 ft | 410 kts | 352° |
| 2026-05-05 14:18 | 29.35233 | -81.32861 | 20030 ft | 411 kts | 352° |
| 2026-05-05 14:19 | 29.38096 | -81.33043 | 20452 ft | 412 kts | 352° |
| 2026-05-05 14:19 | 29.40961 | -81.33220 | 20877 ft | 413 kts | 352° |
| 2026-05-05 14:19 | 29.43833 | -81.33399 | 21297 ft | 414 kts | 351° |
| 2026-05-05 14:19 | 29.46712 | -81.33578 | 21715 ft | 415 kts | 351° |
| 2026-05-05 14:20 | 29.49598 | -81.33754 | 22113 ft | 416 kts | 351° |
| 2026-05-05 14:20 | 29.52497 | -81.33929 | 22507 ft | 417 kts | 351° |
| 2026-05-05 14:20 | 29.55361 | -81.34101 | 22914 ft | 418 kts | 351° |
| 2026-05-05 14:20 | 29.58271 | -81.34275 | 23316 ft | 419 kts | 351° |
| 2026-05-05 14:21 | 29.61189 | -81.34447 | 23694 ft | 421 kts | 351° |
| 2026-05-05 14:21 | 29.64116 | -81.34621 | 24012 ft | 422 kts | 351° |
| 2026-05-05 14:21 | 29.67048 | -81.34794 | 24337 ft | 422 kts | 351° |
| 2026-05-05 14:21 | 29.69989 | -81.34962 | 24654 ft | 423 kts | 351° |
| 2026-05-05 14:22 | 29.72932 | -81.35127 | 24976 ft | 424 kts | 351° |
| 2026-05-05 14:22 | 29.75879 | -81.35291 | 25295 ft | 424 kts | 351° |
| 2026-05-05 14:22 | 29.78830 | -81.35457 | 25603 ft | 425 kts | 351° |
| 2026-05-05 14:22 | 29.81787 | -81.35629 | 25911 ft | 426 kts | 351° |
| 2026-05-05 14:23 | 29.84708 | -81.35800 | 26249 ft | 426 kts | 351° |
| 2026-05-05 14:23 | 29.87674 | -81.35975 | 26578 ft | 426 kts | 351° |
| 2026-05-05 14:23 | 29.90638 | -81.36147 | 26883 ft | 427 kts | 351° |
| 2026-05-05 14:23 | 29.93606 | -81.36318 | 27172 ft | 428 kts | 351° |
| 2026-05-05 14:24 | 29.96579 | -81.36490 | 27453 ft | 428 kts | 351° |
| 2026-05-05 14:24 | 29.99556 | -81.36661 | 27803 ft | 427 kts | 351° |
| 2026-05-05 14:24 | 30.02514 | -81.36830 | 28196 ft | 425 kts | 351° |
| 2026-05-05 14:24 | 30.05456 | -81.36997 | 28585 ft | 422 kts | 351° |
| 2026-05-05 14:25 | 30.08382 | -81.37163 | 28980 ft | 420 kts | 351° |
| 2026-05-05 14:25 | 30.11291 | -81.37330 | 29349 ft | 418 kts | 350° |
| 2026-05-05 14:25 | 30.14187 | -81.37498 | 29813 ft | 415 kts | 350° |
| 2026-05-05 14:25 | 30.17054 | -81.37662 | 30227 ft | 411 kts | 350° |
| 2026-05-05 14:26 | 30.19899 | -81.37823 | 30577 ft | 408 kts | 350° |
| 2026-05-05 14:26 | 30.22687 | -81.37983 | 30928 ft | 405 kts | 350° |
| 2026-05-05 14:26 | 30.25496 | -81.38147 | 31285 ft | 402 kts | 350° |
| 2026-05-05 14:26 | 30.28277 | -81.38308 | 31662 ft | 399 kts | 350° |
| 2026-05-05 14:27 | 30.31045 | -81.38468 | 32015 ft | 396 kts | 349° |
| 2026-05-05 14:27 | 30.33786 | -81.38628 | 32359 ft | 394 kts | 349° |
| 2026-05-05 14:27 | 30.36507 | -81.38785 | 32711 ft | 390 kts | 349° |
| 2026-05-05 14:27 | 30.39209 | -81.38941 | 33041 ft | 387 kts | 349° |
| 2026-05-05 14:28 | 30.41895 | -81.39097 | 33388 ft | 385 kts | 349° |
| 2026-05-05 14:28 | 30.44524 | -81.39251 | 33733 ft | 382 kts | 349° |
| 2026-05-05 14:28 | 30.47170 | -81.39407 | 34071 ft | 380 kts | 349° |
| 2026-05-05 14:28 | 30.49798 | -81.39554 | 34353 ft | 377 kts | 349° |
| 2026-05-05 14:29 | 30.52419 | -81.39689 | 34598 ft | 376 kts | 349° |
| 2026-05-05 14:29 | 30.55029 | -81.39821 | 34820 ft | 375 kts | 349° |
| 2026-05-05 14:29 | 30.57637 | -81.39957 | 34983 ft | 376 kts | 349° |
| 2026-05-05 14:29 | 30.60242 | -81.40097 | 35035 ft | 374 kts | 349° |
| 2026-05-05 14:30 | 30.65437 | -81.40371 | 35036 ft | 373 kts | 349° |
| 2026-05-05 14:30 | 30.70582 | -81.40643 | 35035 ft | 372 kts | 349° |
| 2026-05-05 14:31 | 30.75751 | -81.40912 | 35028 ft | 372 kts | 349° |
| 2026-05-05 14:31 | 30.80919 | -81.41192 | 35030 ft | 372 kts | 349° |
| 2026-05-05 14:32 | 30.86083 | -81.41472 | 35029 ft | 372 kts | 349° |
| 2026-05-05 14:32 | 30.91218 | -81.41746 | 35027 ft | 371 kts | 349° |
| 2026-05-05 14:33 | 30.96384 | -81.42019 | 35133 ft | 372 kts | 349° |
| 2026-05-05 14:33 | 31.01583 | -81.42299 | 35142 ft | 374 kts | 349° |
| 2026-05-05 14:34 | 31.06777 | -81.42570 | 35142 ft | 373 kts | 349° |
| 2026-05-05 14:34 | 31.11960 | -81.42843 | 35140 ft | 373 kts | 349° |
| 2026-05-05 14:35 | 31.17103 | -81.43125 | 35135 ft | 372 kts | 349° |
| 2026-05-05 14:35 | 31.22278 | -81.43403 | 35151 ft | 372 kts | 350° |
| 2026-05-05 14:36 | 31.24897 | -81.43213 | 35186 ft | 384 kts | 0° |
| 2026-05-05 14:36 | 31.27515 | -81.42342 | 35178 ft | 400 kts | 11° |
| 2026-05-05 14:36 | 31.32612 | -81.39578 | 35169 ft | 404 kts | 13° |
| 2026-05-05 14:37 | 31.37674 | -81.36816 | 35156 ft | 404 kts | 13° |
| 2026-05-05 14:37 | 31.42771 | -81.34054 | 35146 ft | 404 kts | 13° |
| 2026-05-05 14:38 | 31.47873 | -81.31288 | 35140 ft | 404 kts | 13° |
| 2026-05-05 14:38 | 31.52968 | -81.28517 | 35165 ft | 404 kts | 13° |
| 2026-05-05 14:39 | 31.58013 | -81.25771 | 35132 ft | 400 kts | 13° |
| 2026-05-05 14:39 | 31.63061 | -81.23020 | 35124 ft | 400 kts | 13° |
| 2026-05-05 14:40 | 31.68110 | -81.20262 | 35112 ft | 400 kts | 13° |
| 2026-05-05 14:40 | 31.73163 | -81.17504 | 35108 ft | 400 kts | 13° |
| 2026-05-05 14:41 | 31.78219 | -81.14739 | 35129 ft | 401 kts | 13° |
| 2026-05-05 14:41 | 31.83241 | -81.11981 | 35123 ft | 401 kts | 13° |
| 2026-05-05 14:42 | 31.88283 | -81.09214 | 35119 ft | 400 kts | 13° |
| 2026-05-05 14:42 | 31.93333 | -81.06448 | 35114 ft | 400 kts | 13° |
| 2026-05-05 14:43 | 31.98377 | -81.03677 | 35108 ft | 400 kts | 13° |
| 2026-05-05 14:43 | 32.03418 | -81.00892 | 35147 ft | 400 kts | 13° |
| 2026-05-05 14:44 | 32.08422 | -80.98089 | 35137 ft | 400 kts | 13° |
| 2026-05-05 14:44 | 32.13448 | -80.95262 | 35133 ft | 400 kts | 14° |
| 2026-05-05 14:45 | 32.18476 | -80.92433 | 35165 ft | 400 kts | 13° |
| 2026-05-05 14:45 | 32.23511 | -80.89617 | 35175 ft | 400 kts | 14° |
| 2026-05-05 14:46 | 32.28541 | -80.86798 | 35166 ft | 400 kts | 14° |
| 2026-05-05 14:46 | 32.33541 | -80.83982 | 35171 ft | 401 kts | 14° |
| 2026-05-05 14:47 | 32.38581 | -80.81137 | 35163 ft | 401 kts | 14° |
| 2026-05-05 14:47 | 32.43626 | -80.78292 | 35158 ft | 401 kts | 14° |
| 2026-05-05 14:48 | 32.48669 | -80.75449 | 35157 ft | 402 kts | 14° |
| 2026-05-05 14:48 | 32.53709 | -80.72592 | 35154 ft | 401 kts | 14° |
| 2026-05-05 14:49 | 32.58717 | -80.69752 | 35179 ft | 401 kts | 14° |
| 2026-05-05 14:49 | 32.63758 | -80.66900 | 35167 ft | 402 kts | 14° |
| 2026-05-05 14:50 | 32.68797 | -80.64026 | 35161 ft | 404 kts | 17° |
| 2026-05-05 14:50 | 32.71208 | -80.62201 | 35152 ft | 419 kts | 27° |
| 2026-05-05 14:50 | 32.73349 | -80.59758 | 35151 ft | 435 kts | 37° |
| 2026-05-05 14:51 | 32.77307 | -80.54373 | 35139 ft | 436 kts | 36° |
| 2026-05-05 14:51 | 32.81305 | -80.48940 | 35156 ft | 438 kts | 37° |
| 2026-05-05 14:52 | 32.85327 | -80.43486 | 35142 ft | 439 kts | 37° |
| 2026-05-05 14:52 | 32.89351 | -80.38020 | 35141 ft | 439 kts | 37° |
| 2026-05-05 14:53 | 32.93377 | -80.32549 | 35138 ft | 439 kts | 37° |
| 2026-05-05 14:53 | 32.97371 | -80.27120 | 35140 ft | 439 kts | 37° |
| 2026-05-05 14:54 | 33.01388 | -80.21646 | 35140 ft | 439 kts | 37° |
| 2026-05-05 14:54 | 33.05394 | -80.16164 | 35156 ft | 439 kts | 38° |
| 2026-05-05 14:55 | 33.09416 | -80.10668 | 35151 ft | 440 kts | 38° |
| 2026-05-05 14:55 | 33.13421 | -80.05188 | 35146 ft | 442 kts | 38° |
| 2026-05-05 14:56 | 33.17462 | -79.99654 | 35146 ft | 443 kts | 38° |
| 2026-05-05 14:56 | 33.21501 | -79.94092 | 35149 ft | 443 kts | 38° |
| 2026-05-05 14:57 | 33.25535 | -79.88521 | 35152 ft | 443 kts | 38° |
| 2026-05-05 14:57 | 33.29546 | -79.82983 | 35171 ft | 443 kts | 38° |
| 2026-05-05 14:58 | 33.33580 | -79.77426 | 35175 ft | 443 kts | 38° |
| 2026-05-05 14:58 | 33.37621 | -79.71852 | 35150 ft | 444 kts | 39° |
| 2026-05-05 14:59 | 33.41662 | -79.66242 | 35137 ft | 445 kts | 39° |
| 2026-05-05 14:59 | 33.45709 | -79.60622 | 35138 ft | 446 kts | 39° |
| 2026-05-05 15:00 | 33.49077 | -79.55948 | 35141 ft | 446 kts | 39° |
| 2026-05-05 15:00 | 33.53822 | -79.49353 | 35173 ft | 447 kts | 39° |
| 2026-05-05 15:01 | 33.57847 | -79.43743 | 35171 ft | 447 kts | 39° |
| 2026-05-05 15:01 | 33.61907 | -79.38079 | 35155 ft | 449 kts | 39° |
| 2026-05-05 15:02 | 33.65989 | -79.32374 | 35137 ft | 451 kts | 39° |
| 2026-05-05 15:02 | 33.70077 | -79.26648 | 35146 ft | 452 kts | 39° |
| 2026-05-05 15:03 | 33.74179 | -79.20907 | 35156 ft | 453 kts | 39° |
| 2026-05-05 15:03 | 33.78288 | -79.15147 | 35171 ft | 453 kts | 40° |
| 2026-05-05 15:04 | 33.82364 | -79.09422 | 35172 ft | 454 kts | 40° |
| 2026-05-05 15:04 | 33.86468 | -79.03650 | 35177 ft | 454 kts | 41° |
| 2026-05-05 15:05 | 33.92630 | -78.94971 | 35164 ft | 455 kts | 41° |
| 2026-05-05 15:06 | 33.96744 | -78.89166 | 35162 ft | 456 kts | 41° |
| 2026-05-05 15:06 | 34.00823 | -78.83385 | 35169 ft | 456 kts | 42° |
| 2026-05-05 15:07 | 34.04924 | -78.77558 | 35159 ft | 455 kts | 42° |
| 2026-05-05 15:07 | 34.09025 | -78.71736 | 35181 ft | 455 kts | 42° |
| 2026-05-05 15:08 | 34.13123 | -78.65911 | 35192 ft | 456 kts | 43° |
| 2026-05-05 15:08 | 34.17202 | -78.60103 | 35178 ft | 457 kts | 43° |
| 2026-05-05 15:09 | 34.21312 | -78.54232 | 35192 ft | 458 kts | 44° |
| 2026-05-05 15:09 | 34.25488 | -78.48429 | 35182 ft | 453 kts | 37° |
| 2026-05-05 15:10 | 34.30180 | -78.43403 | 35168 ft | 451 kts | 35° |
| 2026-05-05 15:10 | 34.34091 | -78.39241 | 35164 ft | 451 kts | 35° |
| 2026-05-05 15:11 | 34.39554 | -78.33398 | 35149 ft | 451 kts | 35° |
| 2026-05-05 15:11 | 34.44247 | -78.28367 | 35157 ft | 451 kts | 35° |
| 2026-05-05 15:12 | 34.48145 | -78.24180 | 35158 ft | 450 kts | 35° |
| 2026-05-05 15:12 | 34.52840 | -78.19146 | 35161 ft | 450 kts | 35° |
| 2026-05-05 15:13 | 34.58287 | -78.13285 | 35160 ft | 450 kts | 36° |
| 2026-05-05 15:13 | 34.62183 | -78.09084 | 35164 ft | 450 kts | 35° |
| 2026-05-05 15:14 | 34.66863 | -78.04037 | 35175 ft | 450 kts | 36° |
| 2026-05-05 15:14 | 34.71539 | -77.98978 | 35168 ft | 450 kts | 36° |
| 2026-05-05 15:15 | 34.76222 | -77.93911 | 35161 ft | 451 kts | 36° |
| 2026-05-05 15:15 | 34.80884 | -77.88859 | 35144 ft | 453 kts | 36° |
| 2026-05-05 15:16 | 34.85593 | -77.83742 | 35141 ft | 454 kts | 36° |
| 2026-05-05 15:16 | 34.90341 | -77.78672 | 35164 ft | 454 kts | 35° |
| 2026-05-05 15:17 | 34.95954 | -77.72916 | 35167 ft | 454 kts | 34° |
| 2026-05-05 15:17 | 35.00008 | -77.68772 | 35167 ft | 454 kts | 35° |
| 2026-05-05 15:18 | 35.04798 | -77.63822 | 35160 ft | 454 kts | 35° |
| 2026-05-05 15:18 | 35.09601 | -77.58811 | 35170 ft | 454 kts | 36° |
| 2026-05-05 15:19 | 35.14479 | -77.53917 | 35145 ft | 452 kts | 28° |
| 2026-05-05 15:19 | 35.19823 | -77.49907 | 35141 ft | 451 kts | 26° |
| 2026-05-05 15:20 | 35.25152 | -77.45934 | 35142 ft | 452 kts | 26° |
| 2026-05-05 15:20 | 35.30521 | -77.41917 | 35142 ft | 453 kts | 26° |
| 2026-05-05 15:21 | 35.35899 | -77.37891 | 35137 ft | 453 kts | 27° |
| 2026-05-05 15:21 | 35.41270 | -77.33858 | 35130 ft | 453 kts | 27° |
| 2026-05-05 15:22 | 35.46643 | -77.29812 | 35137 ft | 453 kts | 27° |
| 2026-05-05 15:22 | 35.51976 | -77.25788 | 35141 ft | 453 kts | 27° |
| 2026-05-05 15:23 | 35.57345 | -77.21739 | 35166 ft | 453 kts | 27° |
| 2026-05-05 15:23 | 35.62733 | -77.17680 | 35141 ft | 455 kts | 27° |
| 2026-05-05 15:24 | 35.68125 | -77.13604 | 35131 ft | 456 kts | 27° |
| 2026-05-05 15:24 | 35.73498 | -77.09540 | 35133 ft | 456 kts | 27° |
| 2026-05-05 15:25 | 35.78910 | -77.05444 | 35132 ft | 457 kts | 27° |
| 2026-05-05 15:25 | 35.84329 | -77.01343 | 35146 ft | 457 kts | 27° |
| 2026-05-05 15:26 | 35.89746 | -76.97227 | 35146 ft | 457 kts | 27° |
| 2026-05-05 15:26 | 35.95202 | -76.93234 | 35144 ft | 455 kts | 24° |
| 2026-05-05 15:27 | 36.00783 | -76.89577 | 35140 ft | 454 kts | 23° |
| 2026-05-05 15:27 | 36.06351 | -76.86001 | 35166 ft | 454 kts | 23° |
| 2026-05-05 15:28 | 36.11927 | -76.82321 | 35131 ft | 455 kts | 24° |
| 2026-05-05 15:28 | 36.17500 | -76.78577 | 35120 ft | 456 kts | 24° |
| 2026-05-05 15:29 | 36.23070 | -76.74821 | 35115 ft | 456 kts | 24° |
| 2026-05-05 15:29 | 36.28652 | -76.71077 | 35126 ft | 456 kts | 24° |
| 2026-05-05 15:30 | 36.34236 | -76.67337 | 35115 ft | 456 kts | 24° |
| 2026-05-05 15:30 | 36.39781 | -76.63609 | 35113 ft | 456 kts | 24° |
| 2026-05-05 15:31 | 36.45353 | -76.59853 | 35114 ft | 456 kts | 24° |
| 2026-05-05 15:31 | 36.50923 | -76.56090 | 35127 ft | 455 kts | 24° |
| 2026-05-05 15:32 | 36.56487 | -76.52323 | 35136 ft | 455 kts | 24° |
| 2026-05-05 15:32 | 36.62037 | -76.48557 | 35126 ft | 455 kts | 24° |
| 2026-05-05 15:33 | 36.67599 | -76.44790 | 35102 ft | 456 kts | 24° |
| 2026-05-05 15:33 | 36.73140 | -76.41036 | 35100 ft | 457 kts | 25° |
| 2026-05-05 15:34 | 36.78721 | -76.37243 | 35103 ft | 457 kts | 25° |
| 2026-05-05 15:34 | 36.84303 | -76.33436 | 35136 ft | 457 kts | 25° |
| 2026-05-05 15:35 | 36.89879 | -76.29618 | 35135 ft | 457 kts | 25° |
| 2026-05-05 15:35 | 36.95459 | -76.25800 | 35151 ft | 457 kts | 25° |
| 2026-05-05 15:36 | 37.00993 | -76.22006 | 35148 ft | 456 kts | 25° |
| 2026-05-05 15:36 | 37.06556 | -76.18189 | 35076 ft | 456 kts | 25° |
| 2026-05-05 15:37 | 37.12119 | -76.14367 | 35081 ft | 456 kts | 25° |
| 2026-05-05 15:37 | 37.17653 | -76.10559 | 35070 ft | 457 kts | 25° |
| 2026-05-05 15:38 | 37.23231 | -76.06714 | 35058 ft | 458 kts | 25° |
| 2026-05-05 15:38 | 37.28812 | -76.02850 | 35064 ft | 458 kts | 25° |
| 2026-05-05 15:39 | 37.34401 | -75.98980 | 35075 ft | 459 kts | 25° |
| 2026-05-05 15:39 | 37.40000 | -75.95101 | 35080 ft | 459 kts | 25° |
| 2026-05-05 15:40 | 37.45555 | -75.91251 | 35080 ft | 459 kts | 25° |
| 2026-05-05 15:40 | 37.51141 | -75.87368 | 35079 ft | 459 kts | 25° |
| 2026-05-05 15:41 | 37.56709 | -75.83416 | 35077 ft | 459 kts | 27° |
| 2026-05-05 15:41 | 37.62198 | -75.79287 | 35078 ft | 460 kts | 27° |
| 2026-05-05 15:42 | 37.67642 | -75.75126 | 35067 ft | 461 kts | 27° |
| 2026-05-05 15:42 | 37.73153 | -75.70957 | 35050 ft | 462 kts | 27° |
| 2026-05-05 15:43 | 37.78685 | -75.66809 | 35062 ft | 463 kts | 27° |
| 2026-05-05 15:43 | 37.84218 | -75.62647 | 35055 ft | 463 kts | 28° |
| 2026-05-05 15:44 | 37.89627 | -75.58181 | 35063 ft | 465 kts | 31° |
| 2026-05-05 15:44 | 37.94870 | -75.53484 | 35057 ft | 465 kts | 32° |
| 2026-05-05 15:45 | 38.00148 | -75.48751 | 35059 ft | 465 kts | 32° |
| 2026-05-05 15:45 | 38.05508 | -75.44198 | 35063 ft | 461 kts | 25° |
| 2026-05-05 15:46 | 38.11292 | -75.40799 | 35045 ft | 459 kts | 21° |
| 2026-05-05 15:46 | 38.17108 | -75.37410 | 35030 ft | 460 kts | 21° |
| 2026-05-05 15:47 | 38.22880 | -75.33995 | 35031 ft | 461 kts | 21° |
| 2026-05-05 15:47 | 38.28710 | -75.30552 | 35042 ft | 462 kts | 21° |
| 2026-05-05 15:48 | 38.34546 | -75.27126 | 35047 ft | 462 kts | 21° |
| 2026-05-05 15:48 | 38.40386 | -75.23692 | 35053 ft | 462 kts | 21° |
| 2026-05-05 15:49 | 38.46226 | -75.20249 | 35060 ft | 462 kts | 21° |
| 2026-05-05 15:49 | 38.52043 | -75.16806 | 35065 ft | 461 kts | 21° |
| 2026-05-05 15:50 | 38.57850 | -75.13347 | 35044 ft | 460 kts | 22° |
| 2026-05-05 15:50 | 38.63606 | -75.09751 | 35039 ft | 461 kts | 23° |
| 2026-05-05 15:51 | 38.69311 | -75.06043 | 35026 ft | 454 kts | 24° |
| 2026-05-05 15:51 | 38.72100 | -75.04221 | 34765 ft | 445 kts | 23° |
| 2026-05-05 15:51 | 38.74846 | -75.02435 | 34365 ft | 440 kts | 23° |
| 2026-05-05 15:51 | 38.77564 | -75.00682 | 33520 ft | 436 kts | 23° |
| 2026-05-05 15:52 | 38.80249 | -74.98958 | 32211 ft | 438 kts | 23° |
| 2026-05-05 15:52 | 38.82966 | -74.97217 | 31142 ft | 434 kts | 23° |
| 2026-05-05 15:52 | 38.85652 | -74.95494 | 30189 ft | 429 kts | 23° |
| 2026-05-05 15:52 | 38.88301 | -74.93792 | 29145 ft | 422 kts | 23° |
| 2026-05-05 15:53 | 38.90903 | -74.92116 | 28187 ft | 415 kts | 23° |
| 2026-05-05 15:53 | 38.93456 | -74.90468 | 27294 ft | 407 kts | 23° |
| 2026-05-05 15:53 | 38.95958 | -74.88846 | 26454 ft | 399 kts | 24° |
| 2026-05-05 15:53 | 38.98417 | -74.87250 | 25674 ft | 393 kts | 24° |
| 2026-05-05 15:54 | 39.00800 | -74.85705 | 24894 ft | 386 kts | 24° |
| 2026-05-05 15:54 | 39.03181 | -74.84164 | 24093 ft | 380 kts | 24° |
| 2026-05-05 15:54 | 39.05557 | -74.82730 | 23240 ft | 374 kts | 17° |
| 2026-05-05 15:54 | 39.08020 | -74.81801 | 22323 ft | 364 kts | 6° |
| 2026-05-05 15:55 | 39.10501 | -74.81425 | 21446 ft | 354 kts | 356° |
| 2026-05-05 15:55 | 39.12928 | -74.81570 | 20600 ft | 345 kts | 347° |
| 2026-05-05 15:55 | 39.15243 | -74.82175 | 19794 ft | 336 kts | 338° |
| 2026-05-05 15:55 | 39.17462 | -74.83013 | 19008 ft | 330 kts | 338° |
| 2026-05-05 15:56 | 39.19651 | -74.83835 | 18246 ft | 325 kts | 337° |
| 2026-05-05 15:56 | 39.21783 | -74.84632 | 17422 ft | 320 kts | 337° |
| 2026-05-05 15:56 | 39.23905 | -74.85425 | 16727 ft | 312 kts | 337° |
| 2026-05-05 15:56 | 39.25941 | -74.86185 | 16392 ft | 301 kts | 336° |
| 2026-05-05 15:57 | 39.27947 | -74.86944 | 16043 ft | 298 kts | 336° |
| 2026-05-05 15:57 | 39.29925 | -74.87690 | 15737 ft | 295 kts | 336° |
| 2026-05-05 15:57 | 39.31885 | -74.88429 | 15412 ft | 292 kts | 336° |
| 2026-05-05 15:57 | 39.33815 | -74.89157 | 15133 ft | 288 kts | 336° |
| 2026-05-05 15:58 | 39.35750 | -74.89894 | 14789 ft | 297 kts | 336° |
| 2026-05-05 15:58 | 39.37735 | -74.90660 | 14414 ft | 305 kts | 336° |
| 2026-05-05 15:58 | 39.39773 | -74.91440 | 14026 ft | 307 kts | 336° |
| 2026-05-05 15:58 | 39.41825 | -74.92216 | 13591 ft | 308 kts | 336° |
| 2026-05-05 15:59 | 39.43882 | -74.92990 | 13168 ft | 307 kts | 336° |
| 2026-05-05 15:59 | 39.45930 | -74.93761 | 12747 ft | 307 kts | 336° |
| 2026-05-05 15:59 | 39.47978 | -74.94535 | 12302 ft | 307 kts | 336° |
| 2026-05-05 15:59 | 39.50033 | -74.95315 | 11863 ft | 308 kts | 336° |
| 2026-05-05 16:00 | 39.52093 | -74.96094 | 11498 ft | 306 kts | 336° |
| 2026-05-05 16:00 | 39.54051 | -74.97073 | 11014 ft | 300 kts | 323° |
| 2026-05-05 16:00 | 39.55747 | -74.98539 | 10724 ft | 289 kts | 316° |
| 2026-05-05 16:00 | 39.57381 | -75.00072 | 10340 ft | 289 kts | 316° |
| 2026-05-05 16:01 | 39.58988 | -75.01567 | 10005 ft | 287 kts | 316° |
| 2026-05-05 16:01 | 39.60607 | -75.03072 | 9680 ft | 286 kts | 316° |
| 2026-05-05 16:01 | 39.62217 | -75.04569 | 9356 ft | 284 kts | 316° |
| 2026-05-05 16:01 | 39.63819 | -75.06062 | 9037 ft | 283 kts | 317° |
| 2026-05-05 16:02 | 39.65429 | -75.07533 | 8714 ft | 286 kts | 322° |
| 2026-05-05 16:02 | 39.67283 | -75.08566 | 8401 ft | 295 kts | 339° |
| 2026-05-05 16:02 | 39.69347 | -75.08848 | 8056 ft | 303 kts | 359° |
| 2026-05-05 16:02 | 39.71431 | -75.08346 | 7701 ft | 307 kts | 15° |
| 2026-05-05 16:03 | 39.73365 | -75.07156 | 7348 ft | 309 kts | 31° |
| 2026-05-05 16:03 | 39.74999 | -75.05359 | 7005 ft | 308 kts | 47° |
| 2026-05-05 16:03 | 39.76438 | -75.03300 | 6671 ft | 308 kts | 47° |
| 2026-05-05 16:03 | 39.77883 | -75.01239 | 6330 ft | 306 kts | 46° |
| 2026-05-05 16:04 | 39.79312 | -74.99214 | 5973 ft | 304 kts | 46° |
| 2026-05-05 16:04 | 39.80734 | -74.97199 | 5652 ft | 302 kts | 46° |
| 2026-05-05 16:04 | 39.82145 | -74.95197 | 5310 ft | 299 kts | 47° |
| 2026-05-05 16:04 | 39.83350 | -74.93009 | 4963 ft | 297 kts | 63° |
| 2026-05-05 16:05 | 39.84083 | -74.90521 | 4584 ft | 294 kts | 77° |
| 2026-05-05 16:05 | 39.84597 | -74.87942 | 4200 ft | 293 kts | 75° |
| 2026-05-05 16:05 | 39.85460 | -74.85600 | 3981 ft | 285 kts | 46° |
| 2026-05-05 16:05 | 39.87054 | -74.84272 | 3826 ft | 267 kts | 11° |
| 2026-05-05 16:06 | 39.88810 | -74.84359 | 3640 ft | 244 kts | 333° |
| 2026-05-05 16:06 | 39.89995 | -74.85686 | 3529 ft | 216 kts | 292° |
| 2026-05-05 16:06 | 39.90433 | -74.87512 | 3482 ft | 210 kts | 278° |
| 2026-05-05 16:06 | 39.90678 | -74.89383 | 3430 ft | 209 kts | 276° |
| 2026-05-05 16:07 | 39.90933 | -74.91235 | 3373 ft | 196 kts | 278° |
| 2026-05-05 16:07 | 39.91214 | -74.92888 | 3293 ft | 181 kts | 279° |
| 2026-05-05 16:07 | 39.91526 | -74.94468 | 3231 ft | 179 kts | 281° |
| 2026-05-05 16:07 | 39.91862 | -74.96029 | 3169 ft | 180 kts | 282° |
| 2026-05-05 16:08 | 39.92175 | -74.97590 | 3091 ft | 177 kts | 274° |
| 2026-05-05 16:08 | 39.92099 | -74.99169 | 3015 ft | 175 kts | 255° |
| 2026-05-05 16:08 | 39.91789 | -75.00736 | 2996 ft | 174 kts | 253° |
| 2026-05-05 16:08 | 39.91490 | -75.02252 | 2959 ft | 175 kts | 254° |
| 2026-05-05 16:09 | 39.91188 | -75.03783 | 2773 ft | 175 kts | 255° |
| 2026-05-05 16:09 | 39.90887 | -75.05308 | 2579 ft | 172 kts | 254° |
| 2026-05-05 16:09 | 39.90591 | -75.06807 | 2362 ft | 170 kts | 253° |
| 2026-05-05 16:09 | 39.90295 | -75.08305 | 2162 ft | 171 kts | 253° |
| 2026-05-05 16:10 | 39.90015 | -75.09726 | 1929 ft | 153 kts | 252° |
| 2026-05-05 16:10 | 39.89756 | -75.11031 | 1727 ft | 146 kts | 252° |
| 2026-05-05 16:10 | 39.89509 | -75.12280 | 1549 ft | 140 kts | 250° |
| 2026-05-05 16:10 | 39.89266 | -75.13505 | 1352 ft | 140 kts | 250° |
| 2026-05-05 16:11 | 39.89020 | -75.14742 | 1175 ft | 140 kts | 251° |
| 2026-05-05 16:11 | 39.88290 | -75.18419 | 645 ft | 139 kts | 252° |
| 2026-05-05 16:12 | 39.88053 | -75.19613 | 478 ft | 137 kts | 251° |
| 2026-05-05 16:12 | 39.87572 | -75.22050 | 110 ft | 138 kts | 252° |
| 2026-05-05 16:13 | 39.87159 | -75.24118 | 30 ft | 23 kts | 258° |
| 2026-05-05 16:13 | 39.87162 | -75.24305 | 25 ft | 8 kts | 290° |
| 2026-05-05 16:13 | 39.87171 | -75.24343 | 25 ft | 4 kts | 285° |
| 2026-05-05 16:14 | 39.87195 | -75.24414 | 28 ft | 5 kts | 338° |
| 2026-05-05 16:14 | 39.87234 | -75.24304 | 27 ft | 9 kts | 76° |
| 2026-05-05 16:15 | 39.87275 | -75.24102 | 29 ft | 12 kts | 75° |
| 2026-05-05 16:15 | 39.87314 | -75.23907 | 28 ft | 10 kts | 75° |
| 2026-05-05 16:16 | 39.87377 | -75.23718 | 29 ft | 10 kts | 16° |
| 2026-05-05 16:16 | 39.87474 | -75.23674 | 28 ft | 7 kts | 44° |
| 2026-05-05 16:17 | 39.87625 | -75.23668 | 29 ft | 13 kts | 303° |
| 2026-05-05 16:17 | 39.87656 | -75.23733 | 29 ft | 12 kts | 303° |
| 2026-05-05 16:18 | 39.87736 | -75.23868 | 30 ft | 4 kts | 2° |
| 2026-05-05 16:18 | 39.87758 | -75.23853 | 28 ft | 3 kts | 27° |
| 2026-05-05 16:18 | 39.87776 | -75.23838 | 29 ft | 1 kts | 30° |
| 2026-05-05 16:19 | 39.87777 | -75.23838 | 25 ft | 0 kts | 30° |